createdAt,value
2023-10-14T00:01:29.650Z,22.25
2023-10-14T00:03:57.778Z,22.26
2023-10-14T00:06:25.997Z,22.25
2023-10-14T00:08:57.578Z,22.25
2023-10-14T00:11:28.218Z,22.25
2023-10-14T00:13:56.610Z,22.21
2023-10-14T00:16:30.858Z,22.21
2023-10-14T00:18:59.924Z,22.21
2023-10-14T00:21:27.342Z,22.22
2023-10-14T00:23:58.507Z,22.22
2023-10-14T00:26:26.464Z,22.23
2023-10-14T00:28:56.356Z,22.21
2023-10-14T00:31:24.768Z,22.20
2023-10-14T00:33:55.348Z,22.19
2023-10-14T00:36:23.350Z,22.21
2023-10-14T00:38:57.139Z,22.18
2023-10-14T00:41:27.953Z,22.20
2023-10-14T00:43:55.587Z,22.17
2023-10-14T00:46:24.882Z,22.16
2023-10-14T00:48:59.774Z,22.19
2023-10-14T00:51:28.832Z,22.17
2023-10-14T00:54:02.304Z,22.17
2023-10-14T00:56:30.169Z,22.16
2023-10-14T00:59:04.488Z,22.15
2023-10-14T01:01:32.890Z,22.14
2023-10-14T01:04:19.890Z,22.13
2023-10-14T01:07:02.675Z,22.09
2023-10-14T01:09:40.131Z,22.13
2023-10-14T01:12:17.681Z,22.16
2023-10-14T01:14:53.371Z,22.16
2023-10-14T01:17:31.231Z,22.14
2023-10-14T01:20:00.986Z,22.13
2023-10-14T01:22:30.483Z,22.16
2023-10-14T01:24:57.698Z,22.12
2023-10-14T01:27:26.375Z,22.12
2023-10-14T01:29:53.596Z,22.15
2023-10-14T01:32:49.216Z,22.14
2023-10-14T01:35:26.235Z,22.09
2023-10-14T01:37:55.560Z,22.14
2023-10-14T01:40:23.951Z,22.16
2023-10-14T01:42:57.637Z,22.21
2023-10-14T01:45:29.138Z,22.16
2023-10-14T01:48:13.096Z,22.16
2023-10-14T01:50:47.507Z,22.15
2023-10-14T01:53:24.441Z,22.09
2023-10-14T01:55:59.860Z,22.15
2023-10-14T01:58:31.159Z,22.14
2023-10-14T02:01:06.949Z,22.16
2023-10-14T02:03:35.550Z,22.16
2023-10-14T02:06:17.545Z,22.13
2023-10-14T02:08:49.093Z,22.12
2023-10-14T02:11:22.440Z,22.15
2023-10-14T02:13:53.044Z,22.15
2023-10-14T02:16:26.292Z,22.12
2023-10-14T02:19:13.031Z,22.15
2023-10-14T02:21:41.841Z,22.15
2023-10-14T02:24:11.928Z,22.18
2023-10-14T02:26:40.002Z,22.19
2023-10-14T02:29:08.730Z,22.19
2023-10-14T02:31:39.117Z,22.19
2023-10-14T02:34:07.694Z,22.16
2023-10-14T02:36:36.541Z,22.12
2023-10-14T02:39:13.031Z,22.19
2023-10-14T02:41:41.553Z,22.15
2023-10-14T02:44:08.701Z,22.10
2023-10-14T02:46:45.124Z,22.16
2023-10-14T02:49:15.491Z,22.15
2023-10-14T02:51:44.504Z,22.16
2023-10-14T02:54:34.785Z,22.14
2023-10-14T02:57:13.855Z,22.09
2023-10-14T02:59:44.207Z,22.09
2023-10-14T03:02:16.231Z,22.12
2023-10-14T03:04:54.562Z,22.13
2023-10-14T03:07:34.522Z,22.09
2023-10-14T03:10:13.770Z,22.15
2023-10-14T03:12:41.618Z,22.13
2023-10-14T03:15:20.278Z,22.14
2023-10-14T03:17:59.297Z,22.14
2023-10-14T03:20:31.696Z,22.18
2023-10-14T03:23:01.033Z,22.19
2023-10-14T03:25:31.014Z,22.13
2023-10-14T03:28:01.557Z,22.09
2023-10-14T03:30:28.989Z,22.18
2023-10-14T03:32:56.313Z,22.15
2023-10-14T03:35:28.372Z,22.19
2023-10-14T03:37:59.890Z,22.15
2023-10-14T03:40:33.589Z,22.16
2023-10-14T03:43:09.713Z,22.15
2023-10-14T03:45:49.205Z,22.13
2023-10-14T03:48:17.867Z,22.23
2023-10-14T03:50:47.912Z,22.21
2023-10-14T03:53:15.095Z,22.24
2023-10-14T03:55:42.319Z,22.17
2023-10-14T03:58:09.542Z,22.16
2023-10-14T04:00:39.666Z,22.16
2023-10-14T04:03:13.606Z,22.18
2023-10-14T04:05:46.643Z,22.16
2023-10-14T04:08:14.316Z,22.22
2023-10-14T04:10:47.406Z,22.15
2023-10-14T04:13:15.766Z,22.17
2023-10-14T04:15:55.480Z,22.16
2023-10-14T04:18:25.736Z,22.25
2023-10-14T04:21:12.012Z,22.27
2023-10-14T04:23:59.593Z,22.34
2023-10-14T04:26:26.856Z,22.24
2023-10-14T04:28:59.944Z,22.18
2023-10-14T04:31:39.745Z,22.24
2023-10-14T04:34:16.046Z,22.17
2023-10-14T04:36:55.197Z,22.19
2023-10-14T04:39:34.496Z,22.23
2023-10-14T04:42:19.563Z,22.27
2023-10-14T04:44:55.442Z,22.21
2023-10-14T04:47:36.636Z,22.26
2023-10-14T04:50:14.703Z,22.35
2023-10-14T04:52:43.027Z,22.27
2023-10-14T04:55:26.234Z,22.23
2023-10-14T04:58:12.713Z,22.29
2023-10-14T05:00:44.222Z,22.26
2023-10-14T05:03:13.424Z,22.30
2023-10-14T05:05:42.920Z,22.27
2023-10-14T05:08:13.632Z,22.27
2023-10-14T05:10:43.004Z,22.27
2023-10-14T05:13:14.910Z,22.24
2023-10-14T05:15:46.250Z,22.28
2023-10-14T05:18:17.095Z,22.27
2023-10-14T05:20:57.415Z,22.21
2023-10-14T05:23:32.091Z,22.26
2023-10-14T05:26:01.001Z,22.22
2023-10-14T05:28:32.413Z,22.18
2023-10-14T05:31:01.785Z,22.20
2023-10-14T05:33:29.098Z,22.16
2023-10-14T05:36:02.281Z,22.21
2023-10-14T05:38:30.196Z,22.18
2023-10-14T05:40:59.877Z,22.23
2023-10-14T05:43:27.443Z,22.16
2023-10-14T05:45:54.851Z,22.20
2023-10-14T05:48:28.161Z,22.22
2023-10-14T05:50:58.483Z,22.13
2023-10-14T05:53:28.668Z,22.12
2023-10-14T05:56:10.890Z,22.17
2023-10-14T05:58:39.186Z,22.14
2023-10-14T06:01:10.668Z,22.13
2023-10-14T06:03:44.299Z,22.07
2023-10-14T06:06:15.612Z,22.06
2023-10-14T06:08:47.456Z,22.03
2023-10-14T06:11:14.980Z,22.01
2023-10-14T06:13:42.170Z,21.99
2023-10-14T06:16:11.182Z,21.99
2023-10-14T06:18:39.596Z,21.98
2023-10-14T06:21:08.063Z,22.04
2023-10-14T06:23:35.227Z,22.01
2023-10-14T06:26:02.660Z,22.02
2023-10-14T06:28:29.871Z,21.98
2023-10-14T06:31:01.413Z,21.99
2023-10-14T06:33:30.362Z,21.99
2023-10-14T06:36:04.771Z,21.97
2023-10-14T06:38:34.825Z,21.93
2023-10-14T06:41:06.533Z,21.93
2023-10-14T06:43:34.889Z,21.93
2023-10-14T06:46:06.063Z,21.90
2023-10-14T06:48:34.371Z,21.85
2023-10-14T06:51:02.307Z,21.84
2023-10-14T06:53:30.193Z,21.83
2023-10-14T06:56:00.014Z,21.83
2023-10-14T06:58:29.630Z,21.81
2023-10-14T07:01:00.559Z,21.76
2023-10-14T07:03:29.767Z,21.75
2023-10-14T07:05:57.364Z,21.73
2023-10-14T07:08:25.680Z,21.75
2023-10-14T07:10:55.690Z,21.74
2023-10-14T07:13:23.776Z,21.72
2023-10-14T07:15:53.080Z,21.72
2023-10-14T07:18:24.556Z,21.70
2023-10-14T07:21:02.176Z,21.69
2023-10-14T07:23:35.504Z,21.68
2023-10-14T07:26:13.780Z,21.67
2023-10-14T07:28:44.024Z,21.66
2023-10-14T07:31:12.429Z,21.65
2023-10-14T07:33:41.589Z,21.65
2023-10-14T07:36:08.831Z,21.67
2023-10-14T07:38:36.639Z,21.67
2023-10-14T07:41:04.330Z,21.65
2023-10-14T07:43:34.965Z,21.66
2023-10-14T07:46:05.175Z,21.63
2023-10-14T07:48:32.445Z,21.62
2023-10-14T07:51:04.075Z,21.75
2023-10-14T07:53:39.015Z,23.22
2023-10-14T07:56:08.040Z,24.47
2023-10-14T07:58:37.180Z,25.58
2023-10-14T08:01:07.967Z,25.49
2023-10-14T08:03:37.327Z,24.43
2023-10-14T08:06:06.609Z,23.94
2023-10-14T08:08:43.559Z,23.51
2023-10-14T08:11:13.312Z,23.15
2023-10-14T08:13:41.941Z,22.86
2023-10-14T08:16:09.260Z,22.70
2023-10-14T08:18:37.122Z,22.78
2023-10-14T08:21:04.636Z,22.80
2023-10-14T08:23:31.902Z,22.94
2023-10-14T08:26:00.782Z,22.86
2023-10-14T08:28:28.835Z,22.79
2023-10-14T08:30:58.520Z,22.78
2023-10-14T08:33:26.646Z,22.78
2023-10-14T08:35:53.839Z,22.71
2023-10-14T08:38:23.472Z,22.74
2023-10-14T08:40:54.784Z,22.71
2023-10-14T08:43:30.065Z,22.79
2023-10-14T08:46:01.184Z,22.88
2023-10-14T08:48:29.218Z,22.78
2023-10-14T08:50:58.171Z,22.87
2023-10-14T08:53:25.961Z,22.84
2023-10-14T08:55:53.617Z,22.85
2023-10-14T08:58:24.300Z,22.84
2023-10-14T09:00:55.696Z,22.84
2023-10-14T09:03:25.605Z,22.77
2023-10-14T09:05:53.173Z,22.64
2023-10-14T09:08:20.981Z,22.64
2023-10-14T09:10:50.820Z,22.73
2023-10-14T09:13:21.593Z,22.71
2023-10-14T09:15:51.007Z,22.72
2023-10-14T09:18:20.144Z,22.67
2023-10-14T09:20:55.095Z,22.64
2023-10-14T09:23:35.852Z,22.63
2023-10-14T09:26:04.246Z,22.63
2023-10-14T09:28:41.857Z,22.59
2023-10-14T09:31:10.964Z,22.62
2023-10-14T09:33:42.597Z,22.62
2023-10-14T09:36:19.822Z,22.65
2023-10-14T09:38:49.750Z,22.61
2023-10-14T09:41:17.072Z,22.60
2023-10-14T09:43:44.791Z,22.65
2023-10-14T09:46:13.533Z,22.66
2023-10-14T09:48:41.432Z,22.69
2023-10-14T09:51:09.990Z,22.70
2023-10-14T09:53:38.163Z,22.58
2023-10-14T09:56:11.942Z,22.46
2023-10-14T09:58:42.966Z,22.32
2023-10-14T10:01:16.207Z,22.28
2023-10-14T10:04:06.504Z,22.23
2023-10-14T10:06:50.248Z,22.12
2023-10-14T10:09:50.752Z,22.11
2023-10-14T10:12:21.613Z,22.08
2023-10-14T10:14:57.667Z,22.01
2023-10-14T10:17:25.300Z,21.95
2023-10-14T10:20:14.917Z,21.92
2023-10-14T10:22:53.617Z,21.88
2023-10-14T10:25:51.245Z,21.91
2023-10-14T10:28:28.258Z,22.01
2023-10-14T10:30:58.002Z,22.03
2023-10-14T10:33:52.953Z,22.08
2023-10-14T10:36:31.456Z,22.15
2023-10-14T10:39:16.843Z,22.15
2023-10-14T10:41:44.254Z,22.17
2023-10-14T10:44:13.189Z,22.20
2023-10-14T10:46:47.425Z,22.22
2023-10-14T10:49:18.086Z,22.23
2023-10-14T10:52:14.349Z,22.29
2023-10-14T10:54:44.542Z,22.31
2023-10-14T10:57:14.906Z,22.28
2023-10-14T10:59:42.319Z,22.21
2023-10-14T11:02:10.864Z,22.19
2023-10-14T11:04:42.705Z,22.20
2023-10-14T11:07:12.219Z,22.23
2023-10-14T11:09:43.118Z,22.24
2023-10-14T11:12:11.521Z,22.19
2023-10-14T11:14:39.410Z,22.09
2023-10-14T11:17:07.831Z,22.08
2023-10-14T11:19:35.449Z,22.04
2023-10-14T11:22:04.428Z,22.03
2023-10-14T11:24:32.704Z,21.99
2023-10-14T11:27:01.284Z,21.99
2023-10-14T11:29:29.085Z,21.94
2023-10-14T11:31:59.845Z,21.94
2023-10-14T11:34:33.882Z,21.93
2023-10-14T11:37:01.232Z,22.01
2023-10-14T11:39:29.790Z,21.95
2023-10-14T11:41:57.009Z,21.92
2023-10-14T11:44:24.195Z,21.86
2023-10-14T11:46:52.270Z,21.81
2023-10-14T11:49:19.673Z,21.77
2023-10-14T11:51:48.481Z,21.67
2023-10-14T11:54:17.167Z,21.58
2023-10-14T11:56:44.490Z,21.50
2023-10-14T11:59:13.376Z,21.41
2023-10-14T12:01:46.200Z,21.46
2023-10-14T12:04:16.241Z,21.53
2023-10-14T12:06:43.868Z,21.65
2023-10-14T12:09:11.814Z,21.74
2023-10-14T12:11:45.760Z,21.79
2023-10-14T12:14:16.136Z,21.85
2023-10-14T12:16:43.885Z,21.84
2023-10-14T12:19:15.544Z,21.82
2023-10-14T12:21:43.611Z,21.82
2023-10-14T12:24:11.610Z,21.82
2023-10-14T12:26:46.244Z,21.81
2023-10-14T12:29:13.682Z,21.83
2023-10-14T12:31:48.307Z,21.83
2023-10-14T12:34:16.907Z,21.81
2023-10-14T12:36:46.198Z,21.81
2023-10-14T12:39:27.656Z,21.81
2023-10-14T12:42:03.508Z,21.80
2023-10-14T12:44:30.935Z,21.84
2023-10-14T12:46:58.663Z,21.86
2023-10-14T12:49:26.227Z,21.87
2023-10-14T12:51:59.715Z,21.86
2023-10-14T12:54:30.746Z,21.85
2023-10-14T12:56:58.264Z,21.85
2023-10-14T12:59:26.025Z,21.86
2023-10-14T13:02:00.512Z,21.87
2023-10-14T13:04:31.302Z,21.86
2023-10-14T13:06:59.245Z,21.84
2023-10-14T13:09:30.712Z,21.83
2023-10-14T13:11:58.890Z,21.84
2023-10-14T13:14:30.074Z,21.84
2023-10-14T13:17:02.153Z,21.84
2023-10-14T13:19:36.631Z,21.83
2023-10-14T13:22:10.829Z,21.83
2023-10-14T13:24:38.915Z,21.83
2023-10-14T13:27:06.183Z,21.84
2023-10-14T13:29:36.652Z,21.83
2023-10-14T13:32:04.098Z,21.83
2023-10-14T13:34:33.485Z,21.84
2023-10-14T13:37:01.394Z,21.88
2023-10-14T13:39:35.772Z,21.84
2023-10-14T13:42:03.799Z,21.81
2023-10-14T13:44:31.008Z,21.84
2023-10-14T13:46:58.237Z,21.83
2023-10-14T13:49:26.744Z,21.81
2023-10-14T13:51:54.641Z,21.82
2023-10-14T13:54:22.719Z,21.80
2023-10-14T13:56:50.344Z,21.81
2023-10-14T13:59:23.456Z,21.79
2023-10-14T14:01:51.197Z,21.79
2023-10-14T14:04:19.144Z,21.80
2023-10-14T14:06:46.640Z,21.79
2023-10-14T14:09:16.147Z,21.78
2023-10-14T14:11:43.719Z,21.76
2023-10-14T14:14:10.986Z,21.78
2023-10-14T14:16:40.064Z,21.75
2023-10-14T14:19:07.378Z,21.75
2023-10-14T14:21:34.584Z,21.73
2023-10-14T14:24:02.212Z,21.73
2023-10-14T14:26:30.831Z,21.70
2023-10-14T14:29:01.004Z,21.69
2023-10-14T14:31:31.656Z,21.70
2023-10-14T14:33:58.962Z,21.69
2023-10-14T14:36:26.236Z,21.71
2023-10-14T14:38:55.371Z,21.70
2023-10-14T14:41:28.531Z,21.68
2023-10-14T14:43:56.720Z,21.68
2023-10-14T14:46:24.393Z,21.66
2023-10-14T14:48:51.616Z,21.67
2023-10-14T14:51:18.994Z,21.66
2023-10-14T14:53:46.176Z,21.65
2023-10-14T14:56:15.595Z,21.65
2023-10-14T14:58:43.192Z,21.66
2023-10-14T15:01:25.313Z,21.66
2023-10-14T15:03:54.513Z,21.63
2023-10-14T15:06:22.784Z,21.62
2023-10-14T15:08:52.917Z,21.62
2023-10-14T15:11:20.770Z,21.61
2023-10-14T15:13:48.086Z,21.62
2023-10-14T15:16:20.500Z,21.62
2023-10-14T15:18:55.376Z,21.60
2023-10-14T15:21:22.541Z,21.59
2023-10-14T15:23:50.903Z,21.59
2023-10-14T15:26:18.179Z,21.58
2023-10-14T15:28:45.399Z,21.55
2023-10-14T15:31:13.255Z,21.54
2023-10-14T15:33:40.499Z,21.56
2023-10-14T15:36:12.617Z,21.57
2023-10-14T15:38:40.257Z,21.54
2023-10-14T15:41:07.804Z,21.53
2023-10-14T15:43:35.229Z,21.54
2023-10-14T15:46:03.089Z,21.53
2023-10-14T15:48:34.861Z,21.52
2023-10-14T15:51:02.119Z,21.52
2023-10-14T15:53:29.370Z,21.47
2023-10-14T15:55:57.545Z,21.48
2023-10-14T15:58:40.448Z,21.47
2023-10-14T16:01:08.819Z,21.46
2023-10-14T16:03:36.436Z,21.44
2023-10-14T16:06:05.176Z,21.42
2023-10-14T16:08:33.239Z,21.40
2023-10-14T16:11:00.632Z,21.38
2023-10-14T16:13:27.887Z,21.40
2023-10-14T16:15:56.494Z,21.36
2023-10-14T16:18:23.707Z,21.35
2023-10-14T16:20:51.674Z,21.37
2023-10-14T16:23:18.960Z,21.36
2023-10-14T16:25:46.372Z,21.35
2023-10-14T16:28:16.636Z,21.44
2023-10-14T16:30:45.246Z,21.42
2023-10-14T16:33:12.478Z,21.37
2023-10-14T16:35:42.246Z,21.33
2023-10-14T16:38:11.131Z,21.34
2023-10-14T16:40:39.873Z,21.33
2023-10-14T16:43:10.367Z,21.32
2023-10-14T16:45:38.017Z,21.33
2023-10-14T16:48:08.974Z,21.34
2023-10-14T16:50:38.814Z,21.31
2023-10-14T16:53:09.831Z,21.35
2023-10-14T16:55:38.611Z,21.29
2023-10-14T16:58:06.848Z,21.31
2023-10-14T17:00:39.250Z,21.33
2023-10-14T17:03:07.609Z,21.35
2023-10-14T17:05:35.423Z,21.37
2023-10-14T17:08:04.877Z,21.35
2023-10-14T17:10:33.407Z,21.33
2023-10-14T17:13:02.852Z,21.34
2023-10-14T17:15:30.090Z,21.29
2023-10-14T17:18:03.330Z,21.25
2023-10-14T17:20:32.240Z,21.25
2023-10-14T17:23:03.900Z,21.24
2023-10-14T17:25:33.443Z,21.27
2023-10-14T17:28:02.423Z,21.24
2023-10-14T17:30:30.339Z,21.26
2023-10-14T17:33:00.942Z,21.24
2023-10-14T17:35:28.785Z,21.20
2023-10-14T17:37:59.409Z,21.18
2023-10-14T17:40:29.126Z,21.19
2023-10-14T17:43:00.438Z,21.16
2023-10-14T17:45:31.555Z,21.18
2023-10-14T17:48:00.194Z,21.17
2023-10-14T17:50:28.934Z,21.15
2023-10-14T17:53:00.050Z,21.18
2023-10-14T17:55:29.115Z,21.18
2023-10-14T17:57:58.821Z,21.21
2023-10-14T18:00:26.857Z,21.20
2023-10-14T18:02:59.098Z,21.23
2023-10-14T18:05:27.711Z,21.22
2023-10-14T18:08:01.131Z,21.23
2023-10-14T18:10:31.191Z,21.22
2023-10-14T18:12:59.745Z,21.20
2023-10-14T18:15:29.039Z,21.21
2023-10-14T18:17:56.721Z,21.16
2023-10-14T18:20:27.645Z,21.17
2023-10-14T18:22:56.597Z,21.15
2023-10-14T18:25:31.286Z,21.14
2023-10-14T18:27:59.788Z,21.14
2023-10-14T18:30:27.596Z,21.17
2023-10-14T18:32:57.728Z,21.16
2023-10-14T18:35:26.701Z,21.13
2023-10-14T18:37:54.448Z,21.11
2023-10-14T18:40:26.469Z,21.11
2023-10-14T18:42:57.217Z,21.08
2023-10-14T18:45:25.015Z,21.05
2023-10-14T18:47:54.459Z,21.04
2023-10-14T18:50:24.393Z,21.04
2023-10-14T18:52:52.719Z,21.04
2023-10-14T18:55:27.017Z,21.09
2023-10-14T18:58:02.295Z,21.07
2023-10-14T19:00:34.594Z,21.11
2023-10-14T19:03:04.889Z,21.09
2023-10-14T19:05:34.622Z,21.09
2023-10-14T19:08:03.368Z,21.05
2023-10-14T19:10:34.044Z,21.06
2023-10-14T19:13:02.107Z,21.07
2023-10-14T19:15:33.394Z,21.06
2023-10-14T19:18:04.640Z,21.05
2023-10-14T19:20:34.890Z,21.05
2023-10-14T19:23:17.459Z,21.03
2023-10-14T19:25:50.894Z,21.02
2023-10-14T19:28:22.554Z,21.01
2023-10-14T19:30:52.786Z,21.07
2023-10-14T19:33:22.794Z,21.04
2023-10-14T19:36:00.071Z,21.01
2023-10-14T19:38:27.281Z,21.04
2023-10-14T19:41:02.126Z,21.05
2023-10-14T19:43:32.574Z,21.00
2023-10-14T19:46:01.709Z,21.01
2023-10-14T19:48:29.275Z,21.02
2023-10-14T19:50:56.485Z,21.03
2023-10-14T19:53:30.108Z,21.02
2023-10-14T19:55:57.280Z,21.02
2023-10-14T19:58:24.483Z,21.03
2023-10-14T20:00:51.693Z,21.03
2023-10-14T20:03:21.197Z,21.04
2023-10-14T20:05:48.910Z,20.97
2023-10-14T20:08:23.467Z,20.99
2023-10-14T20:10:55.384Z,20.99
2023-10-14T20:13:23.208Z,21.01
2023-10-14T20:15:50.736Z,20.95
2023-10-14T20:18:20.149Z,20.97
2023-10-14T20:20:50.098Z,20.94
2023-10-14T20:23:19.000Z,20.96
2023-10-14T20:25:55.534Z,20.96
2023-10-14T20:28:23.984Z,20.97
2023-10-14T20:30:51.385Z,20.92
2023-10-14T20:33:19.631Z,20.97
2023-10-14T20:35:47.341Z,20.97
2023-10-14T20:38:15.029Z,20.95
2023-10-14T20:40:45.270Z,20.95
2023-10-14T20:43:13.506Z,20.94
2023-10-14T20:45:42.174Z,20.95
2023-10-14T20:48:09.597Z,20.94
2023-10-14T20:50:38.712Z,20.93
2023-10-14T20:53:06.380Z,20.95
2023-10-14T20:55:34.314Z,20.96
2023-10-14T20:58:04.494Z,20.95
2023-10-14T21:00:35.536Z,20.94
2023-10-14T21:03:11.101Z,20.94
2023-10-14T21:05:40.058Z,20.94
2023-10-14T21:08:14.042Z,20.92
2023-10-14T21:10:45.361Z,20.90
2023-10-14T21:13:13.861Z,20.90
2023-10-14T21:15:41.311Z,20.89
2023-10-14T21:18:09.454Z,20.90
2023-10-14T21:20:43.576Z,20.90
2023-10-14T21:23:11.259Z,20.90
2023-10-14T21:25:41.997Z,20.86
2023-10-14T21:28:12.623Z,20.83
2023-10-14T21:30:43.207Z,20.90
2023-10-14T21:33:10.595Z,20.85
2023-10-14T21:35:38.050Z,20.87
2023-10-14T21:38:05.876Z,20.85
2023-10-14T21:40:33.524Z,20.85
2023-10-14T21:43:01.199Z,20.84
2023-10-14T21:45:36.017Z,20.86
2023-10-14T21:48:09.032Z,20.86
2023-10-14T21:50:36.981Z,20.83
2023-10-14T21:53:05.926Z,20.82
2023-10-14T21:55:38.514Z,20.83
2023-10-14T21:58:09.310Z,20.85
2023-10-14T22:00:51.168Z,20.84
2023-10-14T22:03:21.016Z,20.84
2023-10-14T22:05:49.219Z,20.83
2023-10-14T22:08:19.563Z,20.81
2023-10-14T22:10:53.205Z,20.81
2023-10-14T22:13:22.676Z,20.85
2023-10-14T22:15:50.552Z,20.84
2023-10-14T22:18:17.812Z,20.81
2023-10-14T22:20:45.206Z,20.81
2023-10-14T22:23:12.442Z,20.83
2023-10-14T22:25:41.312Z,20.81
2023-10-14T22:28:09.484Z,20.80
2023-10-14T22:30:39.909Z,20.80
2023-10-14T22:33:10.149Z,20.79
2023-10-14T22:35:38.115Z,20.80
2023-10-14T22:38:07.315Z,20.81
2023-10-14T22:40:35.682Z,20.78
2023-10-14T22:43:04.089Z,20.83
2023-10-14T22:45:34.413Z,20.80
2023-10-14T22:48:02.445Z,20.79
2023-10-14T22:50:30.215Z,20.77
2023-10-14T22:52:58.182Z,20.76
2023-10-14T22:55:27.406Z,20.78
2023-10-14T22:57:58.287Z,20.78
2023-10-14T23:00:26.893Z,20.73
2023-10-14T23:02:55.466Z,20.74
2023-10-14T23:05:31.116Z,20.76
2023-10-14T23:08:00.589Z,20.74
2023-10-14T23:10:30.723Z,20.74
2023-10-14T23:13:00.099Z,20.74
2023-10-14T23:15:28.692Z,20.72
2023-10-14T23:17:57.855Z,20.70
2023-10-14T23:20:27.388Z,20.69
2023-10-14T23:22:56.233Z,20.73
2023-10-14T23:25:27.208Z,20.72
2023-10-14T23:27:57.089Z,20.71
2023-10-14T23:30:25.449Z,20.74
2023-10-14T23:32:58.272Z,20.72
2023-10-14T23:35:26.192Z,20.69
2023-10-14T23:37:55.251Z,20.67
2023-10-14T23:40:24.081Z,20.68
2023-10-14T23:42:58.904Z,20.69
2023-10-14T23:45:27.308Z,20.69
2023-10-14T23:47:56.384Z,20.66
2023-10-14T23:50:24.693Z,20.66
2023-10-14T23:52:52.942Z,20.67
2023-10-14T23:55:22.233Z,20.66
2023-10-14T23:57:49.665Z,20.64
